Time;durP1;ratioP1;P1;durP2;ratioP2;P2;SDS_P1;SDS_P2;PMS_P1;PMS_P2;Temp;Humidity;BMP_temperature;BMP_pressure;BME280_temperature;BME280_humidity;BME280_pressure;Samples;Min_cycle;Max_cycle;Signal;HPM_P1;HPM_P2
2023/05/19 04:00:24;;;;;;;37.40;27.40;;;;;;;20.57;42.86;100720.04;109618;1259;67058;-90
2023/05/19 04:28:41;;;;;;;22.70;14.80;;;;;;;20.53;43.30;100730.84;109404;1264;67586;-91
2023/05/19 04:34:00;;;;;;;16.50;12.50;;;;;;;20.52;43.30;100734.83;109617;1261;75948;-90
2023/05/19 04:39:30;;;;;;;17.60;11.40;;;;;;;20.52;43.42;100728.95;109513;1258;73545;-89
2023/05/19 04:41:56;;;;;;;14.30;11.20;;;;;;;20.51;43.23;100726.49;109302;1261;67319;-89
2023/05/19 04:44:22;;;;;;;18.70;10.50;;;;;;;20.51;43.33;100729.09;109398;1260;67619;-88
2023/05/19 05:00:28;;;;;;;18.30;10.60;;;;;;;20.53;43.21;100746.48;109505;1259;74933;-87
2023/05/19 05:02:56;;;;;;;17.20;10.70;;;;;;;20.54;43.31;100748.80;109323;1260;67693;-88
2023/05/19 05:05:22;;;;;;;13.20;9.40;;;;;;;20.55;43.42;100746.51;109207;1258;74459;-86
2023/05/19 05:10:21;;;;;;;15.60;10.40;;;;;;;20.57;43.18;100755.42;109486;1259;67582;-87
2023/05/19 05:12:47;;;;;;;19.20;10.90;;;;;;;20.57;43.11;100758.52;109321;1259;66997;-86
2023/05/19 05:15:14;;;;;;;17.50;12.00;;;;;;;20.57;43.13;100759.30;109484;1260;67843;-88
2023/05/19 05:17:40;;;;;;;18.60;13.40;;;;;;;20.56;43.09;100764.80;109582;1260;67654;-87
2023/05/19 05:20:07;;;;;;;20.10;12.40;;;;;;;20.56;43.31;100766.40;109424;1259;68393;-89
2023/05/19 05:22:33;;;;;;;20.40;12.20;;;;;;;20.56;43.21;100762.06;109683;1258;66944;-88
2023/05/19 05:25:00;;;;;;;19.70;12.80;;;;;;;20.55;43.07;100759.74;109544;1260;67737;-88
2023/05/19 05:27:27;;;;;;;21.00;13.10;;;;;;;20.54;43.07;100758.30;109580;1260;67738;-86
2023/05/19 05:29:53;;;;;;;14.90;11.80;;;;;;;20.53;43.11;100758.09;109530;1261;67026;-88
2023/05/19 05:35:12;;;;;;;20.60;13.10;;;;;;;20.50;43.14;100761.09;109343;1260;66919;-90
2023/05/19 05:40:09;;;;;;;20.00;13.20;;;;;;;20.50;43.33;100759.65;109557;1259;82997;-89
2023/05/19 05:42:36;;;;;;;18.50;12.90;;;;;;;20.50;43.27;100761.70;109303;1260;72320;-89
2023/05/19 05:45:03;;;;;;;20.50;13.20;;;;;;;20.51;43.45;100761.50;109414;1261;67408;-91
2023/05/19 05:47:49;;;;;;;17.70;13.30;;;;;;;20.53;43.33;100765.45;109460;1260;67118;-87
2023/05/19 05:50:15;;;;;;;21.10;14.60;;;;;;;20.54;43.41;100765.88;109585;1260;67433;-88
2023/05/19 06:04:09;;;;;;;20.40;13.00;;;;;;;20.56;43.49;100779.58;109620;1259;76000;-91
2023/05/19 06:06:44;;;;;;;22.40;13.70;;;;;;;20.56;43.51;100780.55;109436;1260;83134;-88
2023/05/19 06:09:11;;;;;;;26.40;14.30;;;;;;;20.55;43.70;100785.57;109506;1257;72292;-89
2023/05/19 06:11:37;;;;;;;31.70;16.10;;;;;;;20.56;43.63;100781.58;109421;1261;67465;-91
2023/05/19 06:14:12;;;;;;;29.90;15.40;;;;;;;20.58;43.73;100785.88;109319;1261;67310;-88
2023/05/19 06:16:42;;;;;;;29.50;16.40;;;;;;;20.58;43.73;100790.95;109198;1260;68128;-94
2023/05/19 06:19:07;;;;;;;26.30;16.20;;;;;;;20.60;43.98;100792.13;109271;1260;84179;-87
2023/05/19 06:32:33;;;;;;;27.80;15.50;;;;;;;20.69;44.16;100799.51;109533;1259;83276;-90
2023/05/19 06:37:54;;;;;;;20.70;14.20;;;;;;;20.72;44.05;100802.58;109377;1260;68067;-88
2023/05/19 06:40:20;;;;;;;23.90;15.00;;;;;;;20.74;44.12;100800.29;109220;1263;67456;-89
2023/05/19 06:42:46;;;;;;;25.90;15.40;;;;;;;20.76;44.08;100802.13;109469;1265;67575;-87
2023/05/19 06:45:12;;;;;;;22.20;14.00;;;;;;;20.77;44.05;100798.14;109257;1261;67627;-87
2023/05/19 06:47:41;;;;;;;24.30;14.40;;;;;;;20.78;43.89;100803.48;109251;1260;67304;-89
2023/05/19 06:50:08;;;;;;;24.60;14.10;;;;;;;20.78;44.09;100803.84;109400;1260;67577;-89
2023/05/19 06:57:58;;;;;;;20.00;14.10;;;;;;;20.80;43.92;100809.37;109667;1260;83489;-89
2023/05/19 07:00:27;;;;;;;26.00;16.30;;;;;;;20.81;43.73;100810.09;109597;1260;72543;-90
2023/05/19 07:02:56;;;;;;;21.40;16.50;;;;;;;20.82;43.97;100814.86;109586;1260;67262;-90
2023/05/19 07:05:42;;;;;;;26.10;17.30;;;;;;;20.83;43.86;100816.40;109488;1260;67840;-91
2023/05/19 07:08:14;;;;;;;23.20;17.60;;;;;;;20.84;43.87;100822.73;109660;1260;74862;-88
2023/05/19 07:10:43;;;;;;;24.70;17.80;;;;;;;20.85;43.99;100819.38;109372;1265;82827;-91
2023/05/19 07:13:09;;;;;;;31.00;18.00;;;;;;;20.86;43.95;100815.85;109377;1260;71602;-88
2023/05/19 07:15:35;;;;;;;27.30;17.70;;;;;;;20.88;44.08;100815.66;109128;1259;67678;-85
2023/05/19 07:18:00;;;;;;;39.20;17.20;;;;;;;20.88;44.06;100812.18;109285;1260;67226;-86
2023/05/19 07:20:26;;;;;;;22.60;16.40;;;;;;;20.90;44.22;100815.16;109347;1259;67268;-86
2023/05/19 07:22:52;;;;;;;22.80;15.70;;;;;;;20.90;44.10;100812.45;109449;1263;67388;-84
2023/05/19 07:30:46;;;;;;;17.20;13.00;;;;;;;20.92;44.17;100812.52;109551;1259;75982;-86
2023/05/19 07:35:47;;;;;;;21.30;15.00;;;;;;;20.97;44.39;100811.20;109423;1260;73222;-85
2023/05/19 07:38:13;;;;;;;23.50;13.90;;;;;;;20.99;44.22;100815.04;109173;1260;67665;-86
2023/05/19 07:40:39;;;;;;;26.60;15.10;;;;;;;20.99;44.21;100815.96;109235;1260;67283;-86
2023/05/19 07:43:04;;;;;;;26.70;14.80;;;;;;;20.99;44.22;100819.24;109454;1259;67164;-88
2023/05/19 07:45:30;;;;;;;23.20;14.10;;;;;;;21.00;44.14;100820.32;109288;1260;67696;-84
2023/05/19 07:47:56;;;;;;;24.70;13.50;;;;;;;21.00;44.00;100819.81;109317;1260;67818;-83
2023/05/19 07:50:21;;;;;;;24.50;13.80;;;;;;;21.00;44.15;100826.56;109328;1260;67576;-83
2023/05/19 07:52:47;;;;;;;23.80;14.60;;;;;;;21.00;44.18;100821.36;109209;1265;67436;-84
2023/05/19 07:55:13;;;;;;;20.70;15.00;;;;;;;21.01;44.06;100819.16;109430;1260;68222;-87
2023/05/19 07:57:40;;;;;;;27.90;14.50;;;;;;;21.02;44.14;100820.14;109384;1260;67927;-85
2023/05/19 08:00:12;;;;;;;18.80;13.80;;;;;;;21.03;44.17;100822.50;109252;1258;67694;-85
2023/05/19 08:02:37;;;;;;;18.80;11.80;;;;;;;21.04;44.35;100824.91;109171;1261;67864;-84
2023/05/19 08:05:03;;;;;;;22.70;13.20;;;;;;;21.07;44.29;100828.96;109520;1260;67910;-87
2023/05/19 08:07:29;;;;;;;19.20;13.80;;;;;;;21.09;44.44;100822.37;109489;1259;67353;-88
2023/05/19 08:09:56;;;;;;;21.00;13.40;;;;;;;21.11;44.38;100824.02;109343;1260;67447;-86
2023/05/19 08:12:21;;;;;;;21.90;13.80;;;;;;;21.12;44.48;100826.54;109444;1260;67699;-86
2023/05/19 08:14:47;;;;;;;21.70;14.10;;;;;;;21.12;44.40;100820.09;109431;1260;67472;-86
2023/05/19 08:17:13;;;;;;;20.10;13.50;;;;;;;21.13;44.42;100827.10;109363;1260;67679;-88
2023/05/19 08:19:38;;;;;;;24.30;13.80;;;;;;;21.14;44.34;100823.77;109263;1260;73225;-85
2023/05/19 08:22:11;;;;;;;29.40;14.50;;;;;;;21.13;44.59;100824.03;109273;1260;68026;-90
2023/05/19 08:24:42;;;;;;;23.00;14.20;;;;;;;21.14;44.48;100820.70;109408;1260;67924;-87
2023/05/19 08:27:15;;;;;;;22.10;14.80;;;;;;;21.14;44.49;100823.78;109446;1259;75201;-87
2023/05/19 08:29:41;;;;;;;25.10;14.10;;;;;;;21.14;44.45;100825.00;109417;1260;83052;-87
2023/05/19 08:32:07;;;;;;;24.70;14.70;;;;;;;21.15;44.60;100829.41;109384;1260;67679;-87
2023/05/19 08:34:40;;;;;;;24.70;14.80;;;;;;;21.16;44.42;100827.98;109535;1259;67368;-87
2023/05/19 08:37:16;;;;;;;22.90;15.20;;;;;;;21.16;44.32;100827.42;109525;1260;67161;-91
2023/05/19 08:39:41;;;;;;;21.30;15.70;;;;;;;21.15;44.34;100834.99;109532;1260;75038;-85
2023/05/19 08:42:08;;;;;;;25.20;15.50;;;;;;;21.16;44.22;100839.95;109569;1260;67607;-86
2023/05/19 08:44:35;;;;;;;21.70;14.80;;;;;;;21.16;44.22;100841.80;109353;1265;68021;-87
2023/05/19 08:47:02;;;;;;;27.90;15.10;;;;;;;21.15;44.11;100836.84;109423;1260;67139;-87
2023/05/19 08:49:28;;;;;;;21.50;15.00;;;;;;;21.17;44.10;100830.91;109461;1260;67665;-87
2023/05/19 08:54:50;;;;;;;19.00;14.20;;;;;;;21.17;44.11;100827.67;109499;1260;82938;-87
2023/05/19 08:57:20;;;;;;;18.40;14.30;;;;;;;21.16;44.03;100830.76;109616;1259;72396;-87
2023/05/19 08:59:45;;;;;;;21.90;14.10;;;;;;;21.16;44.13;100827.21;109540;1261;67454;-86
2023/05/19 09:02:12;;;;;;;21.30;15.10;;;;;;;21.17;43.92;100827.27;109596;1260;67839;-88
2023/05/19 09:04:38;;;;;;;17.90;13.80;;;;;;;21.17;43.97;100827.06;109479;1259;67634;-88
2023/05/19 09:07:05;;;;;;;21.40;14.30;;;;;;;21.18;43.70;100826.66;109673;1260;67522;-91
2023/05/19 09:15:19;;;;;;;19.30;16.10;;;;;;;21.21;43.76;100831.42;109558;1261;65257;-88
2023/05/19 09:17:47;;;;;;;26.80;18.30;;;;;;;21.22;43.73;100826.05;109648;1260;75210;-88
2023/05/19 09:20:30;;;;;;;23.10;18.20;;;;;;;21.23;43.80;100824.79;109505;1259;83458;-90
2023/05/19 09:22:58;;;;;;;22.40;17.80;;;;;;;21.23;43.77;100826.23;109536;1260;72439;-88
2023/05/19 09:25:51;;;;;;;26.90;17.20;;;;;;;21.23;43.68;100828.63;109632;1260;66987;-89
2023/05/19 09:28:28;;;;;;;23.60;17.20;;;;;;;21.23;43.75;100824.11;109485;1257;67600;-88
2023/05/19 09:31:04;;;;;;;22.10;16.90;;;;;;;21.23;43.66;100824.52;109658;1260;76293;-91
2023/05/19 09:33:31;;;;;;;30.00;17.20;;;;;;;21.23;43.73;100822.84;109658;1260;83833;-85
2023/05/19 09:35:56;;;;;;;20.80;16.10;;;;;;;21.22;43.87;100829.23;109623;1259;72491;-87
2023/05/19 09:38:26;;;;;;;24.80;16.20;;;;;;;21.22;43.54;100829.19;109631;1259;67657;-87
2023/05/19 09:40:55;;;;;;;23.70;17.00;;;;;;;21.22;43.70;100827.39;109679;1258;67611;-86
2023/05/19 09:43:20;;;;;;;29.20;16.20;;;;;;;21.22;43.49;100828.92;109502;1259;75158;-85
2023/05/19 09:48:29;;;;;;;22.90;16.20;;;;;;;21.22;43.63;100822.02;109410;1260;72335;-85
2023/05/19 09:50:56;;;;;;;24.40;15.60;;;;;;;21.21;43.67;100827.07;109441;1260;67660;-89
2023/05/19 09:53:21;;;;;;;22.90;15.90;;;;;;;21.22;43.61;100819.40;109273;1260;67463;-86
2023/05/19 09:55:47;;;;;;;18.20;14.70;;;;;;;21.22;43.62;100824.63;109297;1260;67712;-84
2023/05/19 09:58:17;;;;;;;21.50;14.50;;;;;;;21.21;43.48;100822.78;109277;1261;67227;-85
2023/05/19 10:03:16;;;;;;;24.00;14.20;;;;;;;21.22;43.39;100817.77;109547;1259;67321;-86
2023/05/19 10:05:42;;;;;;;23.00;14.60;;;;;;;21.22;43.38;100817.71;109410;1260;67503;-86
2023/05/19 10:08:09;;;;;;;23.00;14.30;;;;;;;21.23;43.36;100817.56;109669;1260;67536;-87
2023/05/19 10:10:36;;;;;;;22.50;16.20;;;;;;;21.24;43.43;100820.64;109626;1259;68028;-88
2023/05/19 10:13:06;;;;;;;23.40;16.40;;;;;;;21.23;43.30;100816.30;109529;1260;67471;-87
2023/05/19 10:15:32;;;;;;;37.70;27.10;;;;;;;21.24;43.54;100809.14;109538;1259;67603;-89
2023/05/19 10:17:58;;;;;;;44.10;32.00;;;;;;;21.23;43.51;100813.33;109475;1260;67277;-88
2023/05/19 10:20:23;;;;;;;33.50;26.30;;;;;;;21.23;43.55;100809.64;109393;1259;67645;-89
2023/05/19 10:22:49;;;;;;;27.30;22.60;;;;;;;21.24;43.39;100809.14;109471;1260;67084;-88
2023/05/19 10:25:18;;;;;;;33.40;21.80;;;;;;;21.25;43.30;100807.14;109515;1259;67659;-88
2023/05/19 10:28:10;;;;;;;30.00;22.00;;;;;;;21.26;43.55;100801.57;109425;1260;67429;31
2023/05/19 10:33:19;;;;;;;24.60;17.70;;;;;;;21.29;43.45;100803.67;109370;1260;75000;-87
2023/05/19 10:35:57;;;;;;;27.20;18.50;;;;;;;21.30;43.26;100803.69;109283;1260;82800;-87
2023/05/19 10:39:01;;;;;;;23.90;14.70;;;;;;;21.31;43.19;100805.02;109583;1258;72863;-87
2023/05/19 10:41:39;;;;;;;15.60;13.50;;;;;;;21.31;43.20;100800.05;109644;1259;66979;-88
2023/05/19 10:46:48;;;;;;;18.10;13.20;;;;;;;21.30;42.90;100793.39;109457;1259;74934;-87
2023/05/19 10:49:23;;;;;;;23.80;11.30;;;;;;;21.32;42.94;100805.73;109532;1259;67519;-86
2023/05/19 10:51:51;;;;;;;19.40;11.30;;;;;;;21.33;42.55;100792.08;109582;1259;72265;-87
2023/05/19 10:54:18;;;;;;;25.60;11.70;;;;;;;21.35;42.47;100783.98;109518;1260;67554;-88
2023/05/19 10:56:46;;;;;;;17.80;11.80;;;;;;;21.37;42.48;100786.35;109485;1260;67229;-88
2023/05/19 11:02:07;;;;;;;15.90;10.50;;;;;;;21.39;42.28;100781.50;109639;1259;82912;-88
2023/05/19 11:04:52;;;;;;;18.40;11.20;;;;;;;21.38;42.16;100775.16;109419;1260;71521;-87
2023/05/19 11:07:19;;;;;;;23.70;10.40;;;;;;;21.38;41.95;100778.08;109374;1260;67551;-87
2023/05/19 11:09:51;;;;;;;17.40;11.00;;;;;;;21.38;42.12;100782.67;109373;1260;67781;-86
2023/05/19 11:12:21;;;;;;;19.30;11.30;;;;;;;21.38;41.87;100786.15;109575;1259;74967;-88
2023/05/19 11:14:59;;;;;;;20.40;11.30;;;;;;;21.38;42.01;100780.52;109629;1260;82187;-89
2023/05/19 11:20:03;;;;;;;15.10;10.20;;;;;;;21.38;41.75;100778.48;109651;1260;67079;-89
2023/05/19 11:22:39;;;;;;;;;;;;;;;21.38;41.75;100770.55;109598;1260;66856;-89
2023/05/19 11:25:06;;;;;;;16.80;11.00;;;;;;;21.34;41.81;100771.75;109663;1259;75135;-88
2023/05/19 11:27:56;;;;;;;18.60;11.30;;;;;;;21.36;41.80;100765.63;109787;1257;83093;31
2023/05/19 11:35:42;;;;;;;16.90;11.80;;;;;;;21.35;41.54;100756.98;109721;1258;67068;-88
2023/05/19 11:38:45;;;;;;;15.50;12.10;;;;;;;21.41;41.32;100761.23;105426;1290;612966;-88
2023/05/19 11:41:17;;;;;;;15.90;12.40;;;;;;;21.38;41.31;100758.41;105598;1292;67458;-88
2023/05/19 11:43:49;;;;;;;16.00;12.60;;;;;;;21.37;41.34;100756.58;105367;1292;68047;-88
2023/05/19 11:46:24;;;;;;;13.70;10.30;;;;;;;21.38;41.08;100746.48;105347;1293;73036;-88
2023/05/19 11:49:10;;;;;;;13.90;10.40;;;;;;;21.38;40.91;100747.30;105525;1292;82772;-88
2023/05/19 11:52:03;;;;;;;13.20;10.30;;;;;;;21.37;40.86;100740.02;101199;1287;5504109;-87
2023/05/19 11:55:13;;;;;;;15.30;9.80;;;;;;;21.37;40.76;100740.70;105368;1293;67586;-88
2023/05/19 11:58:03;;;;;;;13.10;10.30;;;;;;;21.36;40.66;100741.61;105238;1294;68517;-87
2023/05/19 12:00:57;;;;;;;15.10;10.30;;;;;;;21.35;40.49;100737.02;105226;1291;71234;-88
2023/05/19 12:03:31;;;;;;;13.50;10.20;;;;;;;21.35;40.31;100739.92;105396;1287;82788;31
2023/05/19 12:05:58;;;;;;;13.60;9.60;;;;;;;21.34;40.17;100733.48;105173;1294;74346;-88
2023/05/19 12:08:26;;;;;;;16.10;10.10;;;;;;;21.36;40.14;100733.73;105278;1294;67623;-88
2023/05/19 12:16:35;;;;;;;11.90;8.70;;;;;;;21.38;39.93;100725.50;102571;1288;79429;-87
2023/05/19 12:25:07;;;;;;;11.80;8.10;;;;;;;21.38;39.36;100721.20;105386;1291;70462;-89
2023/05/19 12:30:28;;;;;;;8.80;7.00;;;;;;;21.40;39.12;100724.17;84097;1291;80236;31
2023/05/19 12:32:58;;;;;;;13.20;7.20;;;;;;;21.41;38.87;100714.52;105093;1294;72796;-90
2023/05/19 12:35:36;;;;;;;10.50;7.80;;;;;;;21.42;38.67;100709.34;105243;1292;69897;-89
2023/05/19 12:38:22;;;;;;;10.40;7.40;;;;;;;21.44;38.48;100708.66;105418;1291;67197;-89
2023/05/19 12:40:51;;;;;;;10.80;7.70;;;;;;;21.44;38.50;100705.94;105630;1288;72749;-89
2023/05/19 12:43:20;;;;;;;16.60;7.60;;;;;;;21.45;38.32;100702.62;105588;1291;67708;-89
2023/05/19 12:47:00;;;;;;;9.30;7.10;;;;;;;21.45;38.06;100709.33;105397;1291;71882;-89
2023/05/19 12:49:34;;;;;;;10.20;7.60;;;;;;;21.43;38.16;100708.25;105444;1292;69883;-89
2023/05/19 12:55:19;;;;;;;9.90;7.70;;;;;;;21.41;38.13;100700.58;105546;1289;74056;-89
2023/05/19 12:57:55;;;;;;;12.70;7.90;;;;;;;21.41;38.15;100696.45;105288;1292;83088;-88
2023/05/19 13:00:29;;;;;;;13.80;7.80;;;;;;;21.43;38.10;100696.42;105225;1284;72330;-89
2023/05/19 13:05:52;;;;;;;15.00;7.80;;;;;;;21.44;38.20;100695.15;105233;1294;69008;-89
2023/05/19 13:08:22;;;;;;;11.60;8.30;;;;;;;21.43;38.32;100687.21;105510;1291;72007;-89
2023/05/19 13:11:07;;;;;;;9.90;7.60;;;;;;;21.44;38.31;100679.94;105413;1289;84349;-88
2023/05/19 13:13:36;;;;;;;10.80;8.00;;;;;;;21.44;38.38;100688.29;105234;1292;72371;-90
2023/05/19 13:16:19;;;;;;;11.80;8.20;;;;;;;21.44;38.57;100685.99;105648;1291;68193;-89
2023/05/19 13:21:56;;;;;;;12.50;7.70;;;;;;;21.44;38.64;100677.43;105856;1288;73046;-89
2023/05/19 13:30:19;;;;;;;13.10;8.10;;;;;;;21.47;38.93;100681.48;105583;1292;70014;31
2023/05/19 13:33:40;;;;;;;11.60;7.80;;;;;;;21.51;39.09;100671.45;105618;1290;67432;-89
2023/05/19 13:45:31;;;;;;;12.00;8.30;;;;;;;21.57;38.90;100676.67;105738;1285;70256;31
2023/05/19 13:57:44;;;;;;;19.60;11.80;;;;;;;21.61;38.79;100700.98;105604;1291;71674;-88
2023/05/19 14:00:20;;;;;;;14.80;11.80;;;;;;;21.60;38.92;100702.86;105078;1290;68309;-89
2023/05/19 14:06:26;;;;;;;18.40;11.90;;;;;;;21.59;38.83;100719.70;104858;1299;72893;-89
2023/05/19 14:09:03;;;;;;;17.40;11.40;;;;;;;21.58;39.14;100772.59;105113;1297;82879;-90
2023/05/19 14:11:31;;;;;;;13.90;11.20;;;;;;;21.58;39.07;100791.12;105012;1299;72585;-89
2023/05/19 14:14:02;;;;;;;17.70;11.40;;;;;;;21.57;39.12;100811.86;105415;1290;68043;-89
2023/05/19 14:16:32;;;;;;;14.20;11.20;;;;;;;21.56;39.21;100820.91;105508;1294;69828;-89
2023/05/19 14:18:58;;;;;;;18.70;11.00;;;;;;;21.56;39.14;100828.09;105285;1296;72647;-89
2023/05/19 14:21:49;;;;;;;18.60;11.10;;;;;;;21.56;39.19;100834.54;104971;1296;70091;-89
2023/05/19 14:24:18;;;;;;;14.80;10.50;;;;;;;21.55;39.36;100850.16;104778;1296;72377;-90
2023/05/19 14:27:00;;;;;;;18.20;11.50;;;;;;;21.54;39.37;100845.08;104700;1300;70129;-90
2023/05/19 14:29:29;;;;;;;16.50;11.70;;;;;;;21.53;39.32;100850.15;104523;1300;68016;-90
2023/05/19 14:31:56;;;;;;;18.30;11.50;;;;;;;21.52;39.47;100857.63;104889;1293;73302;-90
2023/05/19 14:34:28;;;;;;;18.50;10.90;;;;;;;21.51;39.48;100862.68;104842;1297;83798;-89
2023/05/19 14:36:54;;;;;;;16.00;10.80;;;;;;;21.50;39.64;100858.27;104879;1296;72460;-89
2023/05/19 14:39:24;;;;;;;14.70;10.30;;;;;;;21.50;39.65;100863.50;104999;1296;69870;-89
2023/05/19 14:42:00;;;;;;;13.50;10.40;;;;;;;21.50;39.57;100859.05;104828;1299;70034;31
2023/05/19 14:44:32;;;;;;;15.00;10.30;;;;;;;21.48;39.69;100855.91;104874;1299;72919;-90
2023/05/19 14:47:01;;;;;;;16.90;10.30;;;;;;;21.47;39.74;100853.24;104860;1297;82929;-89
2023/05/19 14:52:15;;;;;;;12.70;10.30;;;;;;;21.45;39.81;100854.61;96016;1298;68358;-89
2023/05/19 14:55:03;;;;;;;15.10;10.30;;;;;;;21.45;39.88;100847.23;105111;1299;68068;-89
2023/05/19 14:57:30;;;;;;;13.90;9.40;;;;;;;21.44;39.88;100842.99;104973;1296;73452;-89
2023/05/19 17:21:12;;;;;;;;;;;;;;;;;;;;;
